Aviation Digital Data Service (ADDS)

Output produced by METARs form (2328 UTC 16 September 2014)
found at http://www.aviationweather.gov/adds/metars/
 
SEGU 162300Z 20010KT 9999 BKN030 SCT100 27/20 Q1010 RMK A2983 NOSIG
SEGU 162240Z 1700/1724 22012KT 9999 SCT020 
     TEMPO 1703/1706 CAVOK 
     FM170700 22008KT 9999 BKN020 SCT100 
     FM171200 20005KT 9999 SCT020 SCT100 
     FM171800 16006KT 9999 FEW020 TX31/1720Z TN21/1711Z
       
SEMT 162300Z 21011KT 9999 BKN020 25/22 Q1011
SEMT 162240Z 1700/1724 20008KT 9999 BKN023 
     FM170600 19006KT 9999 OVC020 
     FM171300 20008KT 9999 BKN023 
     FM171800 27008KT 9999 SCT023 TX28/1720Z TN22/1710Z